Terminal Aerodrome Forecast
Issued by NWS

Home | Current Version | Previous Version | Text Only | Print | Product List | Glossary On
Versions: 1 2 3 4 5 6 7 8 9 10 11 12 13 14 15 16 17
000
FTUS42 KTAE 302326
TAFDHN
TAF
KDHN 302326Z 0100/0124 18010KT P6SM BKN040 OVC090
     FM010800 19010G15KT P6SM VCSH BKN020
     FM011000 20012G19KT 4SM SHRA VCTS OVC015CB
      TEMPO 0111/0114 2SM TSRA
     FM011600 29006G11KT P6SM SCT025 BKN250=

USA.gov is the U.S. government's official web portal to all federal, state and local government web resources and services.